createdAt,value
2017-06-08T00:02:12.686Z,24.90
2017-06-08T00:04:40.234Z,24.90
2017-06-08T00:07:07.697Z,24.90
2017-06-08T00:09:35.144Z,24.90
2017-06-08T00:12:02.595Z,24.90
2017-06-08T00:14:30.047Z,24.90
2017-06-08T00:16:57.499Z,24.90
2017-06-08T00:19:24.954Z,24.90
2017-06-08T00:21:52.430Z,24.90
2017-06-08T00:24:19.984Z,24.90
2017-06-08T00:26:47.434Z,24.90
2017-06-08T00:29:14.903Z,24.90
2017-06-08T00:31:42.355Z,24.90
2017-06-08T00:34:09.826Z,24.90
2017-06-08T00:36:37.271Z,24.90
2017-06-08T00:39:04.727Z,24.90
2017-06-08T00:41:32.183Z,24.90
2017-06-08T00:43:59.639Z,24.90
2017-06-08T00:46:27.089Z,24.90
2017-06-08T00:48:54.534Z,24.90
2017-06-08T00:51:21.992Z,24.90
2017-06-08T00:53:49.447Z,24.90
2017-06-08T00:56:16.907Z,24.90
2017-06-08T00:58:44.378Z,24.90
2017-06-08T01:01:11.838Z,24.90
2017-06-08T01:03:39.391Z,24.90
2017-06-08T01:06:06.859Z,24.90
2017-06-08T01:08:35.076Z,24.90
2017-06-08T01:11:02.547Z,24.80
2017-06-08T01:13:30.032Z,24.80
2017-06-08T01:15:57.482Z,24.80
2017-06-08T01:18:24.937Z,24.80
2017-06-08T01:20:52.382Z,24.90
2017-06-08T01:23:19.839Z,24.80
2017-06-08T01:25:47.326Z,24.80
2017-06-08T01:28:15.601Z,24.80
2017-06-08T01:30:43.044Z,24.80
2017-06-08T01:33:10.602Z,24.80
2017-06-08T01:35:38.056Z,24.80
2017-06-08T01:38:05.509Z,24.80
2017-06-08T01:40:32.965Z,24.80
2017-06-08T01:43:00.427Z,24.80
2017-06-08T01:45:27.877Z,24.80
2017-06-08T01:47:55.352Z,24.80
2017-06-08T01:50:22.803Z,24.80
2017-06-08T01:52:50.263Z,24.80
2017-06-08T01:55:17.720Z,24.80
2017-06-08T01:57:45.170Z,24.80
2017-06-08T02:00:12.626Z,24.80
2017-06-08T02:02:40.079Z,24.80
2017-06-08T02:05:07.642Z,24.80
2017-06-08T02:07:35.099Z,24.80
2017-06-08T02:10:02.566Z,24.80
2017-06-08T02:12:30.115Z,24.80
2017-06-08T02:14:57.576Z,24.80
2017-06-08T02:17:25.028Z,24.70
2017-06-08T02:19:52.486Z,24.80
2017-06-08T02:22:19.943Z,24.80
2017-06-08T02:24:47.406Z,24.70
2017-06-08T02:27:14.960Z,24.80
2017-06-08T02:29:42.432Z,24.80
2017-06-08T02:32:10.651Z,24.70
2017-06-08T02:34:38.102Z,24.70
2017-06-08T02:37:05.551Z,24.70
2017-06-08T02:39:33.056Z,24.70
2017-06-08T02:42:00.519Z,24.70
2017-06-08T02:44:28.071Z,24.70
2017-06-08T02:46:55.526Z,24.70
2017-06-08T02:49:22.983Z,24.70
2017-06-08T02:51:50.535Z,24.70
2017-06-08T02:54:17.987Z,24.70
2017-06-08T02:56:45.471Z,24.70
2017-06-08T02:59:13.731Z,24.70
2017-06-08T03:01:41.177Z,24.70
2017-06-08T03:04:08.631Z,24.70
2017-06-08T03:06:36.195Z,24.70
2017-06-08T03:09:03.644Z,24.70
2017-06-08T03:11:31.095Z,24.70
2017-06-08T03:13:58.555Z,24.70
2017-06-08T03:16:26.009Z,24.70
2017-06-08T03:18:53.468Z,24.70
2017-06-08T03:21:20.917Z,24.70
2017-06-08T03:23:48.378Z,24.70
2017-06-08T03:26:15.826Z,24.70
2017-06-08T03:28:43.312Z,24.70
2017-06-08T03:31:10.762Z,24.70
2017-06-08T03:33:38.226Z,24.70
2017-06-08T03:36:05.678Z,24.70
2017-06-08T03:38:33.135Z,24.70
2017-06-08T03:41:00.587Z,24.70
2017-06-08T03:43:28.043Z,24.70
2017-06-08T03:45:55.495Z,24.70
2017-06-08T03:48:23.059Z,24.70
2017-06-08T03:50:50.619Z,24.70
2017-06-08T03:53:18.069Z,24.70
2017-06-08T03:55:45.514Z,24.70
2017-06-08T03:58:12.972Z,24.70
2017-06-08T04:00:40.434Z,24.70
2017-06-08T04:03:07.878Z,24.70
2017-06-08T04:05:35.343Z,24.70
2017-06-08T04:08:02.807Z,24.70
2017-06-08T04:10:30.262Z,24.70
2017-06-08T04:12:57.822Z,24.70
2017-06-08T04:15:25.278Z,24.70
2017-06-08T04:17:52.727Z,24.70
2017-06-08T04:20:20.198Z,24.70
2017-06-08T04:22:47.655Z,24.70
2017-06-08T04:25:15.111Z,24.70
2017-06-08T04:27:42.570Z,24.70
2017-06-08T04:30:10.028Z,24.70
2017-06-08T04:32:37.492Z,24.70
2017-06-08T04:35:05.037Z,24.70
2017-06-08T04:37:32.494Z,24.70
2017-06-08T04:39:59.954Z,24.70
2017-06-08T04:42:27.419Z,24.70
2017-06-08T04:44:54.969Z,24.70
2017-06-08T04:47:22.450Z,24.70
2017-06-08T04:49:50.661Z,24.70
2017-06-08T04:52:18.154Z,24.70
2017-06-08T04:54:45.724Z,24.70
2017-06-08T04:57:13.270Z,24.70
2017-06-08T04:59:40.731Z,24.70
2017-06-08T05:02:08.282Z,24.70
2017-06-08T05:04:35.743Z,24.70
2017-06-08T05:07:03.199Z,24.70
2017-06-08T05:09:30.659Z,24.70
2017-06-08T05:11:58.215Z,24.70
2017-06-08T05:14:25.682Z,24.70
2017-06-08T05:16:53.128Z,24.70
2017-06-08T05:19:20.582Z,24.70
2017-06-08T05:21:48.052Z,24.70
2017-06-08T05:24:16.314Z,24.70
2017-06-08T05:26:43.779Z,24.70
2017-06-08T05:29:11.235Z,24.70
2017-06-08T05:31:38.790Z,24.70
2017-06-08T05:34:06.244Z,24.70
2017-06-08T05:36:33.699Z,24.70
2017-06-08T05:39:01.150Z,24.70
2017-06-08T05:41:28.605Z,24.70
2017-06-08T05:43:56.057Z,24.70
2017-06-08T05:46:23.506Z,24.70
2017-06-08T05:48:50.972Z,24.70
2017-06-08T05:51:18.423Z,24.70
2017-06-08T05:53:45.880Z,24.70
2017-06-08T05:56:13.335Z,24.70
2017-06-08T05:58:40.791Z,24.70
2017-06-08T06:01:08.244Z,24.70
2017-06-08T06:03:35.709Z,24.70
2017-06-08T06:06:03.155Z,24.70
2017-06-08T06:08:30.630Z,24.80
2017-06-08T06:10:58.091Z,24.70
2017-06-08T06:13:25.640Z,24.80
2017-06-08T06:15:53.203Z,24.80
2017-06-08T06:18:20.655Z,24.80
2017-06-08T06:20:48.227Z,24.80
2017-06-08T06:23:15.674Z,24.80
2017-06-08T06:25:43.135Z,24.80
2017-06-08T06:28:10.587Z,24.80
2017-06-08T06:30:38.048Z,24.80
2017-06-08T06:33:05.499Z,24.80
2017-06-08T06:35:32.960Z,24.80
2017-06-08T06:38:00.415Z,24.80
2017-06-08T06:40:27.966Z,24.80
2017-06-08T06:42:55.415Z,24.80
2017-06-08T06:45:22.881Z,24.80
2017-06-08T06:47:50.443Z,24.80
2017-06-08T06:50:18.004Z,24.80
2017-06-08T06:52:45.463Z,24.80
2017-06-08T06:55:12.915Z,24.80
2017-06-08T06:57:40.374Z,24.80
2017-06-08T07:00:07.826Z,24.80
2017-06-08T07:02:35.286Z,24.80
2017-06-08T07:05:02.750Z,24.90
2017-06-08T07:07:30.217Z,24.90
2017-06-08T07:09:58.434Z,24.90
2017-06-08T07:12:25.895Z,24.90
2017-06-08T07:14:53.351Z,24.90
2017-06-08T07:17:20.838Z,24.90
2017-06-08T07:19:48.291Z,24.90
2017-06-08T07:22:15.755Z,24.90
2017-06-08T07:24:43.211Z,24.90
2017-06-08T07:27:10.686Z,24.90
2017-06-08T07:29:38.903Z,24.90
2017-06-08T07:32:06.399Z,24.90
2017-06-08T07:34:33.854Z,24.90
2017-06-08T07:37:01.310Z,24.90
2017-06-08T07:39:28.866Z,24.90
2017-06-08T07:41:56.427Z,24.90
2017-06-08T07:44:23.887Z,24.90
2017-06-08T07:46:51.335Z,25.00
2017-06-08T07:49:18.794Z,25.00
2017-06-08T07:51:46.246Z,25.00
2017-06-08T07:54:13.703Z,25.00
2017-06-08T07:56:41.168Z,25.00
2017-06-08T07:59:08.627Z,25.10
2017-06-08T08:01:59.630Z,25.10
2017-06-08T08:04:27.096Z,25.10
2017-06-08T08:06:55.330Z,25.10
2017-06-08T08:09:22.810Z,25.00
2017-06-08T08:11:50.259Z,25.00
2017-06-08T08:14:17.714Z,25.00
2017-06-08T08:16:45.164Z,25.00
2017-06-08T08:19:12.610Z,25.00
2017-06-08T08:21:40.105Z,25.00
2017-06-08T08:24:07.659Z,25.00
2017-06-08T08:26:35.128Z,25.00
2017-06-08T08:29:02.571Z,25.00
2017-06-08T08:31:30.031Z,25.00
2017-06-08T08:33:57.487Z,25.10
2017-06-08T08:36:24.951Z,25.10
2017-06-08T08:38:52.498Z,25.10
2017-06-08T08:41:19.959Z,25.10
2017-06-08T08:43:48.346Z,25.10
2017-06-08T08:46:15.803Z,25.10
2017-06-08T08:48:44.024Z,25.00
2017-06-08T08:51:11.487Z,25.00
2017-06-08T08:53:38.951Z,25.10
2017-06-08T08:56:06.427Z,25.10
2017-06-08T08:58:33.879Z,25.10
2017-06-08T09:01:01.330Z,25.10
2017-06-08T09:03:28.791Z,25.10
2017-06-08T09:05:56.242Z,25.10
2017-06-08T09:08:23.814Z,25.10
2017-06-08T09:10:52.052Z,25.10
2017-06-08T09:13:19.542Z,25.10
2017-06-08T09:15:46.994Z,25.10
2017-06-08T09:18:14.562Z,25.10
2017-06-08T09:20:42.016Z,25.10
2017-06-08T09:23:09.547Z,25.10
2017-06-08T09:25:37.031Z,25.10
2017-06-08T09:28:04.485Z,25.10
2017-06-08T09:30:31.941Z,25.10
2017-06-08T09:32:59.414Z,25.10
2017-06-08T09:35:27.633Z,25.20
2017-06-08T09:37:55.083Z,25.10
2017-06-08T09:40:22.590Z,25.20
2017-06-08T09:42:50.050Z,25.10
2017-06-08T09:45:17.506Z,25.20
2017-06-08T09:47:44.954Z,25.20
2017-06-08T09:50:12.410Z,25.20
2017-06-08T09:52:39.862Z,25.20
2017-06-08T09:55:07.321Z,25.20
2017-06-08T09:57:34.775Z,25.20
2017-06-08T10:00:02.234Z,25.20
2017-06-08T10:02:29.794Z,25.20
2017-06-08T10:04:57.259Z,25.20
2017-06-08T10:07:24.715Z,25.20
2017-06-08T10:09:52.270Z,25.20
2017-06-08T10:12:19.732Z,25.20
2017-06-08T10:14:47.183Z,25.30
2017-06-08T10:17:14.646Z,25.30
2017-06-08T10:19:42.200Z,25.30
2017-06-08T10:22:09.658Z,25.30
2017-06-08T10:24:37.116Z,25.30
2017-06-08T10:27:04.583Z,25.30
2017-06-08T10:29:32.854Z,25.30
2017-06-08T10:32:00.311Z,25.30
2017-06-08T10:34:27.762Z,25.30
2017-06-08T10:36:55.216Z,25.30
2017-06-08T10:39:22.666Z,25.30
2017-06-08T10:41:50.120Z,25.30
2017-06-08T10:44:17.566Z,25.30
2017-06-08T10:46:45.039Z,25.30
2017-06-08T10:49:12.486Z,25.30
2017-06-08T10:51:39.938Z,25.30
2017-06-08T10:54:07.383Z,25.30
2017-06-08T10:56:34.854Z,25.30
2017-06-08T10:59:02.310Z,25.30
2017-06-08T11:01:29.871Z,25.30
2017-06-08T11:03:57.446Z,25.30
2017-06-08T11:06:24.994Z,25.40
2017-06-08T11:08:52.475Z,25.40
2017-06-08T11:11:20.691Z,25.30
2017-06-08T11:13:48.147Z,25.30
2017-06-08T11:16:15.630Z,25.30
2017-06-08T11:18:43.088Z,25.30
2017-06-08T11:21:10.647Z,25.20
2017-06-08T11:23:38.212Z,25.20
2017-06-08T11:26:05.660Z,25.20
2017-06-08T11:28:33.107Z,25.20
2017-06-08T11:31:00.558Z,25.10
2017-06-08T11:33:28.019Z,25.10
2017-06-08T11:35:55.466Z,25.10
2017-06-08T11:38:22.942Z,25.10
2017-06-08T11:40:50.398Z,25.10
2017-06-08T11:43:17.846Z,25.10
2017-06-08T11:45:45.301Z,25.10
2017-06-08T11:48:12.774Z,25.10
2017-06-08T11:50:40.227Z,25.10
2017-06-08T11:53:07.678Z,25.10
2017-06-08T11:55:35.238Z,25.10
2017-06-08T11:58:02.687Z,25.10
2017-06-08T12:00:30.147Z,25.10
2017-06-08T12:02:57.606Z,25.10
2017-06-08T12:05:25.083Z,25.10
2017-06-08T12:07:53.300Z,25.10
2017-06-08T12:10:20.750Z,25.10
2017-06-08T12:12:48.200Z,25.10
2017-06-08T12:15:15.710Z,25.10
2017-06-08T12:17:43.268Z,25.10
2017-06-08T12:20:10.712Z,25.10
2017-06-08T12:22:39.083Z,25.10
2017-06-08T12:25:06.539Z,25.10
2017-06-08T12:27:33.999Z,25.10
2017-06-08T12:30:01.475Z,25.10
2017-06-08T12:32:28.938Z,25.10
2017-06-08T12:34:56.495Z,25.10
2017-06-08T12:37:23.958Z,25.10
2017-06-08T12:39:51.498Z,25.10
2017-06-08T12:42:19.058Z,25.10
2017-06-08T12:44:46.511Z,25.10
2017-06-08T12:47:14.075Z,25.10
2017-06-08T12:49:41.527Z,25.10
2017-06-08T12:52:09.088Z,25.10
2017-06-08T12:54:36.535Z,25.10
2017-06-08T12:57:03.983Z,25.10
2017-06-08T12:59:31.459Z,25.10
2017-06-08T13:01:58.911Z,25.10
2017-06-08T13:04:26.374Z,25.10
2017-06-08T13:06:53.831Z,25.10
2017-06-08T13:09:21.286Z,25.10
2017-06-08T13:11:48.742Z,25.10
2017-06-08T13:14:16.207Z,25.10
2017-06-08T13:16:43.659Z,25.10
2017-06-08T13:19:11.115Z,25.10
2017-06-08T13:21:38.566Z,25.10
2017-06-08T13:24:06.043Z,25.10
2017-06-08T13:26:34.259Z,25.10
2017-06-08T13:29:01.752Z,25.10
2017-06-08T13:31:29.200Z,25.10
2017-06-08T13:33:56.651Z,25.10
2017-06-08T13:36:24.104Z,25.10
2017-06-08T13:38:51.583Z,25.20
2017-06-08T13:41:19.050Z,25.10
2017-06-08T13:43:46.498Z,25.20
2017-06-08T13:46:13.954Z,25.20
2017-06-08T13:48:41.510Z,25.20
2017-06-08T13:51:08.966Z,25.20
2017-06-08T13:53:36.422Z,25.20
2017-06-08T13:56:03.883Z,25.20
2017-06-08T13:58:31.431Z,25.20
2017-06-08T14:00:58.906Z,25.20
2017-06-08T14:03:27.127Z,25.20
2017-06-08T14:05:54.622Z,25.20
2017-06-08T14:08:22.083Z,25.20
2017-06-08T14:10:49.638Z,25.20
2017-06-08T14:13:17.091Z,25.20
2017-06-08T14:15:44.543Z,25.20
2017-06-08T14:18:12.011Z,25.20
2017-06-08T14:20:39.454Z,25.30
2017-06-08T14:23:06.923Z,25.20
2017-06-08T14:25:34.379Z,25.20
2017-06-08T14:28:01.835Z,25.20
2017-06-08T14:30:29.390Z,25.20
2017-06-08T14:32:56.853Z,25.20
2017-06-08T14:35:24.406Z,25.20
2017-06-08T14:37:51.962Z,25.20
2017-06-08T14:40:19.407Z,25.20
2017-06-08T14:42:46.880Z,25.20
2017-06-08T14:45:14.328Z,25.20
2017-06-08T14:47:41.779Z,25.20
2017-06-08T14:50:09.235Z,25.20
2017-06-08T14:52:36.699Z,25.20
2017-06-08T14:55:04.160Z,25.20
2017-06-08T14:57:31.629Z,25.20
2017-06-08T14:59:59.890Z,25.20
2017-06-08T15:02:27.347Z,25.20
2017-06-08T15:04:54.798Z,25.20
2017-06-08T15:07:22.257Z,25.20
2017-06-08T15:09:49.810Z,25.30
2017-06-08T15:12:17.259Z,25.20
2017-06-08T15:14:44.735Z,25.20
2017-06-08T15:17:12.283Z,25.30
2017-06-08T15:19:39.848Z,25.30
2017-06-08T15:22:07.290Z,25.30
2017-06-08T15:24:34.742Z,25.20
2017-06-08T15:27:02.907Z,25.30
2017-06-08T15:29:30.354Z,25.30
2017-06-08T15:31:57.847Z,25.20
2017-06-08T15:34:25.300Z,25.30
2017-06-08T15:36:52.763Z,25.30
2017-06-08T15:39:20.203Z,25.30
2017-06-08T15:41:47.776Z,25.30
2017-06-08T15:44:15.224Z,25.20
2017-06-08T15:46:42.686Z,25.30
2017-06-08T15:49:10.139Z,25.30
2017-06-08T15:51:37.598Z,25.30
2017-06-08T15:54:05.055Z,25.30
2017-06-08T15:56:32.501Z,25.30
2017-06-08T15:58:59.969Z,25.30
2017-06-08T16:01:27.531Z,25.30
2017-06-08T16:03:55.079Z,25.30
2017-06-08T16:06:22.526Z,25.30
2017-06-08T16:08:49.983Z,25.30
2017-06-08T16:11:17.455Z,25.40
2017-06-08T16:13:44.915Z,25.60
2017-06-08T16:16:12.462Z,25.90
2017-06-08T16:18:39.931Z,26.10
2017-06-08T16:21:07.373Z,26.30
2017-06-08T16:23:34.846Z,26.40
2017-06-08T16:26:02.391Z,26.50
2017-06-08T16:28:29.838Z,26.60
2017-06-08T16:30:57.287Z,26.70
2017-06-08T16:33:24.743Z,26.80
2017-06-08T16:35:52.199Z,26.80
2017-06-08T16:38:19.650Z,26.90
2017-06-08T16:40:47.113Z,27.00
2017-06-08T16:43:14.587Z,27.00
2017-06-08T16:45:42.047Z,27.10
2017-06-08T16:48:09.507Z,27.10
2017-06-08T16:50:36.959Z,27.20
2017-06-08T16:53:04.415Z,27.20
2017-06-08T16:55:31.895Z,27.20
2017-06-08T16:58:00.139Z,27.30
2017-06-08T17:00:27.582Z,27.30
2017-06-08T17:02:55.039Z,27.30
2017-06-08T17:05:22.487Z,27.30
2017-06-08T17:07:49.946Z,27.30
2017-06-08T17:10:17.395Z,27.40
2017-06-08T17:12:44.862Z,27.40
2017-06-08T17:15:12.306Z,27.40
2017-06-08T17:17:39.762Z,27.40
2017-06-08T17:20:07.212Z,27.40
2017-06-08T17:22:34.707Z,27.40
2017-06-08T17:25:02.157Z,27.40
2017-06-08T17:27:29.723Z,27.40
2017-06-08T17:29:57.171Z,27.40
2017-06-08T17:32:24.734Z,27.40
2017-06-08T17:34:52.192Z,27.30
2017-06-08T17:37:19.643Z,27.30
2017-06-08T17:39:47.199Z,27.30
2017-06-08T17:42:14.646Z,27.20
2017-06-08T17:44:42.103Z,27.20
2017-06-08T17:47:09.558Z,27.20
2017-06-08T17:49:37.018Z,27.10
2017-06-08T17:52:04.484Z,27.00
2017-06-08T17:54:32.047Z,26.90
2017-06-08T17:56:59.498Z,26.90
2017-06-08T17:59:27.058Z,26.80
2017-06-08T18:01:54.505Z,26.70
2017-06-08T18:04:21.971Z,26.70
2017-06-08T18:06:49.422Z,26.70
2017-06-08T18:09:16.892Z,26.60
2017-06-08T18:11:44.435Z,26.60
2017-06-08T18:14:11.893Z,26.50
2017-06-08T18:16:39.459Z,26.50
2017-06-08T18:19:06.919Z,26.50
2017-06-08T18:21:34.378Z,26.40
2017-06-08T18:24:01.827Z,26.40
2017-06-08T18:26:29.296Z,26.40
2017-06-08T18:28:57.025Z,26.40
2017-06-08T18:31:24.481Z,26.40
2017-06-08T18:33:51.962Z,26.30
2017-06-08T18:36:19.431Z,26.30
2017-06-08T18:38:46.966Z,26.30
2017-06-08T18:41:14.530Z,26.30
2017-06-08T18:43:41.986Z,26.20
2017-06-08T18:46:09.435Z,26.20
2017-06-08T18:48:36.883Z,26.20
2017-06-08T18:51:04.336Z,26.20
2017-06-08T18:53:31.915Z,26.20
2017-06-08T18:55:59.372Z,26.10
2017-06-08T18:58:26.831Z,26.10
2017-06-08T19:00:54.283Z,26.10
2017-06-08T19:03:21.740Z,26.10
2017-06-08T19:05:49.190Z,26.10
2017-06-08T19:08:16.650Z,26.10
2017-06-08T19:10:44.098Z,26.10
2017-06-08T19:13:11.558Z,26.00
2017-06-08T19:15:39.119Z,26.00
2017-06-08T19:18:06.578Z,26.00
2017-06-08T19:20:34.034Z,26.00
2017-06-08T19:23:01.587Z,26.00
2017-06-08T19:25:29.035Z,26.00
2017-06-08T19:27:56.506Z,25.90
2017-06-08T19:30:23.963Z,26.00
2017-06-08T19:32:51.419Z,25.90
2017-06-08T19:35:18.886Z,25.90
2017-06-08T19:37:46.335Z,25.90
2017-06-08T19:40:13.890Z,25.90
2017-06-08T19:42:41.347Z,25.80
2017-06-08T19:45:08.807Z,25.90
2017-06-08T19:47:36.365Z,25.90
2017-06-08T19:50:03.819Z,25.90
2017-06-08T19:52:31.268Z,25.80
2017-06-08T19:54:58.730Z,25.80
2017-06-08T19:57:26.186Z,25.80
2017-06-08T19:59:53.647Z,25.80
2017-06-08T20:02:21.102Z,25.80
2017-06-08T20:04:48.568Z,25.80
2017-06-08T20:07:16.017Z,25.70
2017-06-08T20:09:43.494Z,25.70
2017-06-08T20:12:11.743Z,25.70
2017-06-08T20:14:39.197Z,25.70
2017-06-08T20:17:06.654Z,25.60
2017-06-08T20:19:34.103Z,25.60
2017-06-08T20:22:01.555Z,25.60
2017-06-08T20:24:29.002Z,25.60
2017-06-08T20:26:56.462Z,25.60
2017-06-08T20:29:23.917Z,25.60
2017-06-08T20:31:51.387Z,25.60
2017-06-08T20:34:18.834Z,25.60
2017-06-08T20:36:46.407Z,25.60
2017-06-08T20:39:13.862Z,25.60
2017-06-08T20:41:41.415Z,25.50
2017-06-08T20:44:08.862Z,25.50
2017-06-08T20:46:36.423Z,25.50
2017-06-08T20:49:03.875Z,25.50
2017-06-08T20:51:31.351Z,25.50
2017-06-08T20:53:58.806Z,25.50
2017-06-08T20:56:26.263Z,25.50
2017-06-08T20:58:53.718Z,25.50
2017-06-08T21:01:21.175Z,25.50
2017-06-08T21:03:48.646Z,25.50
2017-06-08T21:06:16.191Z,25.50
2017-06-08T21:08:43.747Z,25.50
2017-06-08T21:11:11.204Z,25.50
2017-06-08T21:13:38.662Z,25.40
2017-06-08T21:16:06.114Z,25.50
2017-06-08T21:18:33.675Z,25.50
2017-06-08T21:21:01.130Z,25.50
2017-06-08T21:23:28.587Z,25.50
2017-06-08T21:25:56.039Z,25.50
2017-06-08T21:28:23.514Z,25.50
2017-06-08T21:30:51.735Z,25.40
2017-06-08T21:33:19.226Z,25.40
2017-06-08T21:35:46.670Z,25.40
2017-06-08T21:38:14.143Z,25.40
2017-06-08T21:40:41.599Z,25.40
2017-06-08T21:43:09.050Z,25.40
2017-06-08T21:45:36.511Z,25.40
2017-06-08T21:48:03.954Z,25.40
2017-06-08T22:04:09.602Z,25.30
2017-06-08T22:06:37.059Z,25.30
2017-06-08T22:09:04.514Z,25.30
2017-06-08T22:11:31.970Z,25.30
2017-06-08T22:13:59.422Z,25.30
2017-06-08T22:16:26.887Z,25.30
2017-06-08T22:18:54.342Z,25.30
2017-06-08T22:21:21.799Z,25.30
2017-06-08T22:23:49.255Z,25.30
2017-06-08T22:26:16.735Z,25.30
2017-06-08T22:28:44.954Z,25.30
2017-06-08T22:31:12.403Z,25.30
2017-06-08T22:33:39.894Z,25.30
2017-06-08T22:36:07.363Z,25.30
2017-06-08T22:38:34.903Z,25.30
2017-06-08T22:41:02.531Z,25.30
2017-06-08T22:43:30.031Z,25.30
2017-06-08T22:45:57.487Z,25.30
2017-06-08T22:48:24.946Z,25.20
2017-06-08T22:50:52.400Z,25.30
2017-06-08T22:53:19.855Z,25.30
2017-06-08T22:55:47.304Z,25.30
2017-06-08T22:58:14.866Z,25.30
2017-06-08T23:00:42.328Z,25.30
2017-06-08T23:03:09.782Z,25.30
2017-06-08T23:05:37.231Z,25.30
2017-06-08T23:08:04.700Z,25.30
2017-06-08T23:10:32.150Z,25.30
2017-06-08T23:12:59.598Z,25.30
2017-06-08T23:15:27.170Z,25.20
2017-06-08T23:17:54.615Z,25.20
2017-06-08T23:20:22.070Z,25.20
2017-06-08T23:22:49.522Z,25.20
2017-06-08T23:25:16.991Z,25.20
2017-06-08T23:27:44.447Z,25.20
2017-06-08T23:30:11.906Z,25.20
2017-06-08T23:32:39.359Z,25.20
2017-06-08T23:35:06.830Z,25.20
2017-06-08T23:37:35.055Z,25.20
2017-06-08T23:40:02.519Z,25.20
2017-06-08T23:42:30.650Z,25.20
2017-06-08T23:44:58.174Z,25.20
2017-06-08T23:47:25.629Z,25.20
2017-06-08T23:49:53.080Z,25.20
2017-06-08T23:52:20.531Z,25.20
2017-06-08T23:54:47.978Z,25.20
2017-06-08T23:57:15.559Z,25.10
2017-06-08T23:59:43.015Z,25.20
